Time;durP1;ratioP1;P1;durP2;ratioP2;P2;SDS_P1;SDS_P2;PMS_P1;PMS_P2;Temp;Humidity;BMP_temperature;BMP_pressure;BME280_temperature;BME280_humidity;BME280_pressure;Samples;Min_cycle;Max_cycle;Signal;HPM_P1;HPM_P2
2021/03/17 00:03:48;;;;;;;6.03;2.95;;;;;;;5.78;52.79;101896.78;8022474;28;20115;-66
2021/03/17 00:07:57;;;;;;;3.85;2.40;;;;;;;5.77;52.53;101901.16;8002156;28;20036;-66
2021/03/17 00:12:06;;;;;;;3.78;2.38;;;;;;;5.76;52.48;101899.47;8007255;28;20024;-66
2021/03/17 00:16:15;;;;;;;3.90;2.35;;;;;;;5.73;52.74;101901.28;8007890;28;20063;-67
2021/03/17 00:20:28;;;;;;;3.25;2.60;;;;;;;5.74;52.83;101913.44;8020606;28;20035;-67
2021/03/17 00:24:37;;;;;;;5.18;2.85;;;;;;;5.71;52.69;101919.59;8017719;28;20086;-67
2021/03/17 00:28:46;;;;;;;4.18;2.60;;;;;;;5.70;52.94;101923.09;8012761;28;20072;-67
2021/03/17 00:32:56;;;;;;;5.45;2.80;;;;;;;5.65;52.98;101930.19;8022314;28;20405;-67
2021/03/17 00:37:06;;;;;;;5.40;2.58;;;;;;;5.65;52.79;101935.41;8024543;28;20028;-67
2021/03/17 00:41:16;;;;;;;4.15;2.30;;;;;;;5.63;52.91;101939.81;8025848;28;20051;-66
2021/03/17 00:45:26;;;;;;;3.40;2.35;;;;;;;5.61;52.66;101946.81;8027220;28;20447;-66
2021/03/17 00:49:35;;;;;;;4.80;2.17;;;;;;;5.59;53.07;101956.44;8012620;28;20039;-65
2021/03/17 00:53:26;;;;;;;2.05;1.73;;;;;;;5.57;53.08;101946.06;8011320;28;20033;-65
2021/03/17 00:57:17;;;;;;;1.63;1.52;;;;;;;5.53;52.94;101947.03;8021738;28;20047;-66
2021/03/17 01:01:07;;;;;;;2.20;1.75;;;;;;;5.53;52.78;101947.03;8013466;28;20066;-65
2021/03/17 01:04:58;;;;;;;2.90;1.70;;;;;;;5.54;52.89;101943.53;8015768;28;20424;-66
2021/03/17 01:08:49;;;;;;;2.25;1.77;;;;;;;5.55;52.90;101944.41;8007519;28;20107;-66
2021/03/17 01:12:41;;;;;;;5.40;1.95;;;;;;;5.51;52.86;101943.63;8012835;28;20050;-66
2021/03/17 01:16:31;;;;;;;2.15;1.75;;;;;;;5.50;52.97;101943.66;8021960;28;20041;-66
2021/03/17 01:20:25;;;;;;;2.17;1.60;;;;;;;5.46;53.03;101940.28;8025759;28;20029;-68
2021/03/17 01:24:15;;;;;;;1.95;1.60;;;;;;;5.49;53.08;101948.03;8030704;28;20111;-66
2021/03/17 01:28:09;;;;;;;3.85;1.50;;;;;;;5.48;53.00;101940.22;8040138;28;20772;-66
2021/03/17 01:31:59;;;;;;;1.80;1.30;;;;;;;5.47;52.85;101941.16;8038131;28;20083;-67
2021/03/17 01:35:50;;;;;;;1.95;1.52;;;;;;;5.46;52.96;101953.31;8010862;28;20038;-66
2021/03/17 01:39:41;;;;;;;3.78;1.42;;;;;;;5.43;53.01;101953.41;8006636;28;20504;-66
2021/03/17 01:43:31;;;;;;;3.70;1.95;;;;;;;5.41;53.18;101949.97;8007330;28;20116;-67
2021/03/17 01:47:22;;;;;;;2.38;1.65;;;;;;;5.40;52.97;101947.41;8017099;28;20132;-65
2021/03/17 01:51:13;;;;;;;2.72;1.70;;;;;;;5.42;52.97;101956.06;8018803;28;20033;-68
2021/03/17 01:55:06;;;;;;;2.63;2.03;;;;;;;5.37;52.93;101953.56;8017875;28;20032;-66
2021/03/17 01:58:56;;;;;;;3.00;1.90;;;;;;;5.39;53.13;101953.53;8021788;28;20068;-65
2021/03/17 02:02:50;;;;;;;1.90;1.55;;;;;;;5.37;53.00;101961.38;8020830;28;20036;-66
2021/03/17 02:06:41;;;;;;;2.72;1.73;;;;;;;5.36;52.84;101967.50;8023606;28;20036;-64
2021/03/17 02:10:33;;;;;;;2.20;1.58;;;;;;;5.34;53.19;101969.28;8023814;28;20032;-67
2021/03/17 02:14:35;;;;;;;2.03;1.63;;;;;;;5.32;53.36;101959.78;8003944;28;20059;-67
2021/03/17 02:18:36;;;;;;;1.42;1.33;;;;;;;5.29;52.92;101971.16;8008923;28;20045;-65
2021/03/17 02:22:47;;;;;;;2.45;1.70;;;;;;;5.27;53.02;101977.31;7999657;28;20053;-66
2021/03/17 02:27:15;;;;;;;1.98;1.67;;;;;;;5.25;53.14;101969.53;8009323;28;20085;-66
2021/03/17 02:31:28;;;;;;;2.25;1.50;;;;;;;5.20;53.41;101971.41;8017045;28;20043;-65
2021/03/17 02:35:25;;;;;;;1.77;1.55;;;;;;;5.21;53.09;101980.06;8020496;28;20039;-67
2021/03/17 02:39:19;;;;;;;2.00;1.58;;;;;;;5.17;53.36;101982.78;8017432;28;20028;-66
2021/03/17 02:43:47;;;;;;;1.92;1.63;;;;;;;5.12;53.36;101994.16;8019408;28;20115;-67
2021/03/17 02:47:52;;;;;;;4.22;2.20;;;;;;;5.07;53.19;101981.25;7982569;28;20038;-66
2021/03/17 02:51:47;;;;;;;3.22;1.88;;;;;;;5.09;53.19;101991.63;8014369;28;20073;-66
2021/03/17 02:55:42;;;;;;;2.17;1.95;;;;;;;5.09;53.49;101983.81;8001993;28;20095;-66
2021/03/17 02:59:36;;;;;;;4.22;2.35;;;;;;;5.07;53.35;101991.66;8015285;28;20037;-65
2021/03/17 03:03:31;;;;;;;3.47;2.20;;;;;;;5.06;53.30;101991.72;8006496;28;20073;-65
2021/03/17 03:07:23;;;;;;;2.50;1.98;;;;;;;5.05;53.51;101990.00;8014989;28;20172;-67
2021/03/17 03:11:15;;;;;;;3.35;2.30;;;;;;;5.01;53.51;101993.59;8015341;28;20477;-67
2021/03/17 03:15:08;;;;;;;4.55;2.00;;;;;;;4.98;53.47;101989.28;8017631;28;20036;-65
2021/03/17 03:19:01;;;;;;;2.92;1.95;;;;;;;4.97;53.52;101986.75;7970798;28;20340;-67
2021/03/17 03:22:54;;;;;;;2.92;2.10;;;;;;;4.97;53.59;101994.56;7970804;28;20371;-67
2021/03/17 03:26:49;;;;;;;2.10;1.88;;;;;;;4.94;53.49;101998.06;7972129;28;20041;-67
2021/03/17 03:30:43;;;;;;;2.90;1.80;;;;;;;4.94;53.38;101998.06;7974347;28;20145;-67
2021/03/17 03:34:35;;;;;;;3.17;1.95;;;;;;;4.91;53.35;101989.47;7974929;28;20045;-65
2021/03/17 03:38:26;;;;;;;1.85;1.67;;;;;;;4.93;53.58;101982.50;7957924;28;20022;-67
2021/03/17 03:42:16;;;;;;;2.65;2.10;;;;;;;4.89;53.30;101986.09;7973391;28;20080;-67
2021/03/17 03:46:07;;;;;;;1.98;1.50;;;;;;;4.90;53.70;101990.38;7981146;28;20128;-67
2021/03/17 03:49:59;;;;;;;2.05;1.77;;;;;;;4.85;53.49;101984.44;7980965;28;20021;-66
2021/03/17 03:54:03;;;;;;;1.65;1.38;;;;;;;4.87;53.55;101999.13;7988278;28;20032;-67
2021/03/17 03:57:59;;;;;;;3.42;1.85;;;;;;;4.83;53.50;101987.06;7991319;28;20087;-67
2021/03/17 04:02:01;;;;;;;1.60;1.45;;;;;;;4.81;53.40;101993.22;7993529;28;20111;-68
2021/03/17 04:05:53;;;;;;;1.23;1.13;;;;;;;4.79;53.61;101984.59;7995428;28;20029;-66
2021/03/17 04:09:47;;;;;;;1.38;1.27;;;;;;;4.75;53.45;101976.00;7995558;28;20087;-67
2021/03/17 04:13:40;;;;;;;1.77;1.50;;;;;;;4.75;53.67;101986.41;7980772;28;20041;-65
2021/03/17 04:17:45;;;;;;;1.45;1.33;;;;;;;4.80;53.80;101996.72;7998591;28;20296;-66
2021/03/17 04:21:40;;;;;;;3.97;1.50;;;;;;;4.80;53.71;102001.91;7969111;28;20038;-64
2021/03/17 04:25:33;;;;;;;2.53;1.48;;;;;;;4.80;53.69;101994.97;7985367;28;20038;-67
2021/03/17 04:29:25;;;;;;;1.38;1.20;;;;;;;4.75;53.75;101999.44;7987180;28;20030;-66
2021/03/17 04:33:16;;;;;;;2.15;1.52;;;;;;;4.77;53.85;102004.59;8013417;28;20907;-67
2021/03/17 04:37:08;;;;;;;2.08;1.50;;;;;;;4.74;53.80;102002.91;8023072;28;20037;-67
2021/03/17 04:41:00;;;;;;;1.92;1.60;;;;;;;4.77;53.79;102009.81;8021947;28;20036;-66
2021/03/17 04:44:51;;;;;;;1.67;1.58;;;;;;;4.74;53.73;102011.56;8023603;28;20044;-66
2021/03/17 04:48:43;;;;;;;2.55;1.75;;;;;;;4.71;53.81;102016.00;8007527;28;20086;-66
2021/03/17 04:52:37;;;;;;;1.88;1.60;;;;;;;4.68;53.58;102008.28;8009164;28;20123;-67
2021/03/17 04:56:30;;;;;;;1.60;1.40;;;;;;;4.68;53.84;102013.47;7996441;28;20033;-67
2021/03/17 05:00:22;;;;;;;1.67;1.50;;;;;;;4.68;53.93;102018.69;7996107;28;20061;-67
2021/03/17 05:04:14;;;;;;;1.77;1.50;;;;;;;4.65;54.09;102016.13;7979435;28;20035;-64
2021/03/17 05:08:08;;;;;;;1.67;1.52;;;;;;;4.64;54.17;102014.44;7999888;28;20041;-65
2021/03/17 05:12:03;;;;;;;1.90;1.65;;;;;;;4.63;53.84;102016.19;8016875;28;20052;-65
2021/03/17 05:15:54;;;;;;;1.63;1.52;;;;;;;4.61;53.94;102012.75;8001217;28;20140;-67
2021/03/17 05:19:45;;;;;;;2.08;1.70;;;;;;;4.61;53.96;102022.31;8001116;28;20036;-67
2021/03/17 05:23:39;;;;;;;2.58;2.22;;;;;;;4.60;54.07;102018.00;8005516;28;20047;-67
2021/03/17 05:27:30;;;;;;;1.98;1.67;;;;;;;4.56;53.96;102019.84;8004169;28;20044;-66
2021/03/17 05:31:24;;;;;;;1.70;1.60;;;;;;;4.57;54.07;102037.13;8003454;28;20770;-67
2021/03/17 05:35:16;;;;;;;2.28;1.98;;;;;;;4.55;54.07;102030.28;7999900;28;20027;-67
2021/03/17 05:39:07;;;;;;;2.40;1.85;;;;;;;4.55;54.17;102028.53;8008423;28;20098;-67
2021/03/17 05:43:03;;;;;;;2.38;1.63;;;;;;;4.57;54.16;102031.94;8009570;28;20529;-67
2021/03/17 05:46:54;;;;;;;2.25;1.70;;;;;;;4.56;53.97;102035.44;7999696;28;20128;-66
2021/03/17 05:50:44;;;;;;;2.33;2.05;;;;;;;4.57;54.42;102038.88;7994809;28;20056;-68
2021/03/17 05:54:35;;;;;;;2.45;2.03;;;;;;;4.54;54.18;102031.16;7997761;28;20051;-64
2021/03/17 05:58:26;;;;;;;2.20;1.73;;;;;;;4.58;54.33;102035.41;7995616;28;20512;-66
2021/03/17 06:02:17;;;;;;;1.63;1.52;;;;;;;4.54;54.21;102032.00;8003364;28;20619;-66
2021/03/17 06:06:08;;;;;;;2.65;1.77;;;;;;;4.56;54.37;102040.66;7999920;28;20647;-66
2021/03/17 06:10:02;;;;;;;2.85;2.05;;;;;;;4.55;54.27;102044.13;7999779;28;20037;-66
2021/03/17 06:13:56;;;;;;;2.40;1.70;;;;;;;4.55;54.22;102041.53;8000489;28;20036;-65
2021/03/17 06:17:51;;;;;;;2.53;1.95;;;;;;;4.58;54.53;102046.66;8002307;28;20045;-66
2021/03/17 06:21:42;;;;;;;2.80;2.00;;;;;;;4.59;54.59;102043.19;7987196;28;20036;-65
2021/03/17 06:25:33;;;;;;;2.35;2.15;;;;;;;4.62;54.53;102048.31;8007192;28;20079;-65
2021/03/17 06:29:25;;;;;;;2.20;1.75;;;;;;;4.63;54.39;102041.34;8008080;28;20063;-67
2021/03/17 06:33:15;;;;;;;2.20;2.00;;;;;;;4.66;54.70;102049.09;7991945;28;20497;-66
2021/03/17 06:37:06;;;;;;;4.07;2.75;;;;;;;4.66;54.69;102047.34;7996914;28;20120;-67
2021/03/17 06:40:59;;;;;;;3.00;2.47;;;;;;;4.68;54.57;102045.59;7995232;28;20029;-66
2021/03/17 06:44:56;;;;;;;2.60;2.00;;;;;;;4.70;54.66;102042.91;7997018;28;20029;-66
2021/03/17 06:48:46;;;;;;;3.75;2.20;;;;;;;4.70;54.80;102043.78;7995890;28;20126;-66
2021/03/17 06:52:39;;;;;;;3.20;2.63;;;;;;;4.71;54.89;102042.03;7999342;28;20442;-66
2021/03/17 06:56:34;;;;;;;2.53;2.00;;;;;;;4.73;54.87;102035.91;8001980;28;20036;-65
2021/03/17 07:00:26;;;;;;;2.15;1.83;;;;;;;4.75;54.98;102025.47;8004254;28;20025;-66
2021/03/17 07:04:18;;;;;;;2.75;1.88;;;;;;;4.76;54.74;102024.56;8003850;28;20032;-66
2021/03/17 07:08:14;;;;;;;1.98;1.75;;;;;;;4.81;54.84;102027.94;8004538;28;20452;-67
2021/03/17 07:12:07;;;;;;;2.05;1.80;;;;;;;4.84;54.92;102025.25;8005376;28;20037;-67
2021/03/17 07:15:59;;;;;;;1.88;1.40;;;;;;;4.86;55.07;102022.59;7977200;28;20033;-66
2021/03/17 07:19:50;;;;;;;1.77;1.48;;;;;;;4.84;55.19;102022.63;8002425;28;20063;-66
2021/03/17 07:23:44;;;;;;;1.27;1.17;;;;;;;4.87;54.99;102030.38;7989168;28;20472;-67
2021/03/17 07:27:36;;;;;;;1.70;1.50;;;;;;;4.89;54.83;102032.94;7992500;28;20041;-66
2021/03/17 07:31:49;;;;;;;1.77;1.58;;;;;;;4.92;55.01;102019.84;7995458;28;20045;-67
2021/03/17 07:35:40;;;;;;;1.38;1.15;;;;;;;4.94;55.04;102028.50;7991600;28;20064;-66
2021/03/17 07:39:37;;;;;;;1.70;1.40;;;;;;;4.96;55.06;102035.34;7996941;28;20112;-67
2021/03/17 07:43:28;;;;;;;1.55;1.42;;;;;;;4.96;54.89;102031.91;7997604;28;20715;-67
2021/03/17 07:47:19;;;;;;;1.33;1.20;;;;;;;5.03;54.99;102038.66;8000793;28;20700;-67
2021/03/17 07:51:10;;;;;;;1.55;1.20;;;;;;;5.04;55.23;102036.03;7988938;28;20412;-66
2021/03/17 07:55:06;;;;;;;1.30;1.20;;;;;;;5.11;55.30;102045.38;7998740;28;20094;-67
2021/03/17 07:58:56;;;;;;;1.13;1.00;;;;;;;5.16;55.32;102050.53;7992830;28;20037;-67
2021/03/17 08:02:48;;;;;;;1.83;1.38;;;;;;;5.20;55.39;102067.78;7988102;28;20037;-66
2021/03/17 08:06:39;;;;;;;1.20;1.10;;;;;;;5.21;54.97;102058.22;7998477;28;20033;-66
2021/03/17 08:10:29;;;;;;;1.15;1.05;;;;;;;5.24;55.02;102076.38;7997141;28;20047;-66
2021/03/17 08:14:22;;;;;;;4.70;2.15;;;;;;;5.25;55.19;102078.97;7994937;28;20431;-66
2021/03/17 08:18:34;;;;;;;1.70;1.10;;;;;;;5.25;54.92;102071.16;7997010;28;20114;-66
2021/03/17 08:22:35;;;;;;;1.30;1.20;;;;;;;5.28;55.10;102070.19;7993019;28;20119;-67
2021/03/17 08:26:26;;;;;;;2.38;1.10;;;;;;;5.33;55.14;102061.38;7989911;28;20033;-64
2021/03/17 08:30:17;;;;;;;1.88;0.90;;;;;;;5.40;55.31;102073.34;7999865;28;20044;-66
2021/03/17 08:34:20;;;;;;;1.30;0.90;;;;;;;5.46;54.92;102073.22;7995491;28;20414;-67
2021/03/17 08:38:14;;;;;;;2.15;1.13;;;;;;;5.50;54.77;102068.78;7992281;28;20064;-67
2021/03/17 08:42:27;;;;;;;1.00;0.88;;;;;;;5.63;54.86;102080.59;7997846;28;20504;-67
2021/03/17 08:46:19;;;;;;;3.05;0.80;;;;;;;5.77;55.11;102072.38;7998140;28;20088;-67
2021/03/17 08:50:16;;;;;;;2.00;0.77;;;;;;;5.94;55.10;102078.00;7999436;28;20033;-67
2021/03/17 08:54:34;;;;;;;1.08;0.70;;;;;;;6.03;54.64;102077.75;8001423;28;20618;-66
2021/03/17 08:58:25;;;;;;;1.70;0.80;;;;;;;6.10;54.78;102084.50;7998121;28;20041;-65
2021/03/17 09:02:25;;;;;;;2.63;0.90;;;;;;;6.20;54.34;102096.41;7965978;28;20041;-67
2021/03/17 09:06:23;;;;;;;1.48;0.77;;;;;;;6.32;54.32;102095.19;7961213;28;20048;-65
2021/03/17 09:10:14;;;;;;;1.60;0.90;;;;;;;6.41;54.38;102090.56;7964956;28;20045;-67
2021/03/17 09:14:07;;;;;;;2.10;0.98;;;;;;;6.64;54.45;102096.81;7965538;28;20079;-66
2021/03/17 09:17:58;;;;;;;1.45;0.70;;;;;;;6.77;54.47;102099.06;7965832;28;20041;-64
2021/03/17 09:21:49;;;;;;;1.65;0.80;;;;;;;6.85;53.89;102097.06;7962520;28;20018;-67
2021/03/17 09:25:40;;;;;;;1.85;0.90;;;;;;;6.83;53.75;102103.25;7965301;28;20047;-65
2021/03/17 09:29:31;;;;;;;1.45;0.77;;;;;;;6.81;54.06;102091.97;7958757;28;20052;-67
2021/03/17 09:33:29;;;;;;;2.25;1.52;;;;;;;6.83;53.43;102088.44;7963823;28;20083;-67
2021/03/17 09:37:20;;;;;;;;;;;;;;;6.96;54.06;102081.06;7965692;28;20041;-66
2021/03/17 09:41:20;;;;;;;2.25;0.80;;;;;;;7.34;54.70;102088.50;7980723;28;19952;-66
2021/03/17 09:45:11;;;;;;;2.33;0.90;;;;;;;7.63;54.95;102082.28;7960519;28;20098;-67
2021/03/17 09:49:16;;;;;;;0.70;0.70;;;;;;;7.83;53.76;102079.84;7958932;28;20029;-67
2021/03/17 09:53:13;;;;;;;1.75;0.70;;;;;;;7.89;54.04;102079.59;7959376;28;20060;-66
2021/03/17 09:57:06;;;;;;;1.95;0.73;;;;;;;7.89;53.31;102089.22;7958598;28;20053;-66
2021/03/17 10:01:16;;;;;;;0.80;0.65;;;;;;;7.78;52.93;102075.66;7958753;28;20049;-67
2021/03/17 10:05:07;;;;;;;2.53;0.75;;;;;;;7.65;52.67;102082.22;7961199;28;20041;-67
2021/03/17 10:08:57;;;;;;;3.15;0.70;;;;;;;7.54;52.84;102079.16;7960062;28;20065;-65
2021/03/17 10:12:49;;;;;;;1.30;0.70;;;;;;;7.44;52.66;102094.28;7959047;28;20055;-65
2021/03/17 10:16:40;;;;;;;2.38;1.00;;;;;;;7.31;52.56;102093.84;7962602;28;20048;-66
2021/03/17 10:20:31;;;;;;;4.00;0.95;;;;;;;7.13;52.43;102084.00;7963706;28;20037;-66
2021/03/17 10:24:58;;;;;;;0.95;0.90;;;;;;;7.14;52.26;102083.06;7963745;28;20038;-65
2021/03/17 10:28:49;;;;;;;3.38;1.10;;;;;;;7.22;52.61;102078.44;7959832;28;20115;-67
2021/03/17 10:32:41;;;;;;;1.83;0.60;;;;;;;7.37;52.74;102090.16;7959200;28;20049;-68
2021/03/17 10:36:37;;;;;;;1.65;0.70;;;;;;;7.41;52.07;102087.41;7964347;28;20045;-67
2021/03/17 10:40:29;;;;;;;1.00;0.68;;;;;;;7.42;51.73;102081.25;7961240;28;20079;-65
2021/03/17 10:44:23;;;;;;;1.88;0.68;;;;;;;7.43;51.57;102064.66;7959138;28;20041;-66
2021/03/17 10:48:19;;;;;;;0.68;0.55;;;;;;;7.47;51.66;102065.41;7959659;28;20139;-68
2021/03/17 10:52:10;;;;;;;2.35;0.65;;;;;;;7.60;51.43;102064.09;7962179;28;20069;-66
2021/03/17 10:56:01;;;;;;;0.90;0.70;;;;;;;7.71;51.78;102061.94;7963163;28;20049;-68
2021/03/17 10:59:51;;;;;;;0.68;0.68;;;;;;;7.84;51.48;102067.59;7959347;28;20513;-66
2021/03/17 11:03:42;;;;;;;3.13;0.68;;;;;;;7.96;51.42;102069.78;7957206;28;20643;-66
2021/03/17 11:08:04;;;;;;;2.78;0.77;;;;;;;8.07;51.28;102065.00;7961737;28;20041;-64
2021/03/17 11:11:55;;;;;;;1.70;0.70;;;;;;;8.18;51.19;102069.88;7953420;28;20054;-66
2021/03/17 11:15:49;;;;;;;1.23;0.70;;;;;;;8.28;50.91;102068.63;7962498;28;20049;-67
2021/03/17 11:19:40;;;;;;;0.98;0.73;;;;;;;8.22;50.43;102069.72;7961944;28;20494;-67
2021/03/17 11:23:33;;;;;;;1.95;0.70;;;;;;;8.18;50.33;102081.19;7959430;28;20037;-66
2021/03/17 11:27:27;;;;;;;1.35;0.70;;;;;;;8.14;50.09;102069.13;7961404;28;21323;-68
2021/03/17 11:31:26;;;;;;;1.40;0.60;;;;;;;8.11;50.11;102058.78;7933903;28;20059;-65
2021/03/17 11:35:18;;;;;;;3.17;0.93;;;;;;;8.08;50.10;102058.88;7960750;28;20072;-66
2021/03/17 11:39:12;;;;;;;2.08;0.77;;;;;;;8.10;50.14;102066.66;7960679;28;20504;-66
2021/03/17 11:43:09;;;;;;;0.98;0.70;;;;;;;8.11;49.90;102057.94;7961112;28;20025;-65
2021/03/17 11:46:59;;;;;;;2.33;0.80;;;;;;;8.12;49.78;102065.75;7960820;28;20076;-66
2021/03/17 11:50:52;;;;;;;1.58;0.95;;;;;;;8.10;49.96;102072.78;7960511;28;20046;-67
2021/03/17 11:54:43;;;;;;;1.85;0.88;;;;;;;8.04;49.69;102057.28;7961607;28;20041;-67
2021/03/17 11:58:36;;;;;;;2.03;0.55;;;;;;;8.11;49.88;102069.25;7961524;28;20042;-67
2021/03/17 12:02:27;;;;;;;2.47;1.17;;;;;;;8.08;49.77;102065.88;7959658;28;20060;-67
2021/03/17 12:06:18;;;;;;;1.20;0.82;;;;;;;8.02;49.58;102073.94;7962267;28;20042;-67
2021/03/17 12:10:10;;;;;;;0.70;0.70;;;;;;;7.95;49.27;102074.16;7960245;28;20037;-67
2021/03/17 12:14:03;;;;;;;2.88;0.98;;;;;;;7.86;49.44;102057.94;7961981;28;20030;-68
2021/03/17 12:17:54;;;;;;;1.98;1.27;;;;;;;7.76;49.27;102054.78;7966514;28;20615;-67
2021/03/17 12:21:44;;;;;;;1.52;0.82;;;;;;;7.66;49.52;102060.41;7967116;28;20041;-66
2021/03/17 12:25:36;;;;;;;2.08;0.90;;;;;;;7.62;49.36;102064.03;7966042;28;20053;-67
2021/03/17 12:29:26;;;;;;;4.03;1.02;;;;;;;7.61;49.36;102054.47;7964686;28;20048;-66
2021/03/17 12:33:17;;;;;;;6.03;1.30;;;;;;;7.63;49.38;102057.91;7967214;28;20037;-66
2021/03/17 12:37:08;;;;;;;2.50;1.00;;;;;;;7.71;48.85;102063.72;7964467;28;20033;-64
2021/03/17 12:40:59;;;;;;;3.17;1.20;;;;;;;7.74;48.95;102066.22;7964786;28;20519;-66
2021/03/17 12:44:49;;;;;;;2.33;0.90;;;;;;;7.70;48.59;102067.25;7967239;28;20056;-67
2021/03/17 12:48:40;;;;;;;3.33;1.08;;;;;;;7.62;48.41;102067.50;7960626;28;20052;-66
2021/03/17 12:52:30;;;;;;;1.90;0.85;;;;;;;7.57;48.22;102063.34;7964963;28;20315;-66
2021/03/17 12:56:21;;;;;;;2.67;1.00;;;;;;;7.53;48.54;102066.97;7967005;28;21058;-66
2021/03/17 13:00:22;;;;;;;3.40;1.30;;;;;;;7.54;47.90;102060.84;7963506;28;20087;-65
2021/03/17 13:04:13;;;;;;;4.78;1.00;;;;;;;7.56;48.36;102056.41;7970138;28;20806;-67
2021/03/17 13:08:04;;;;;;;6.65;1.02;;;;;;;7.59;47.55;102057.13;7968741;28;20408;-67
2021/03/17 13:11:55;;;;;;;2.53;0.98;;;;;;;7.56;47.59;102056.41;7967527;28;20041;-65
2021/03/17 13:15:46;;;;;;;2.28;1.05;;;;;;;7.57;47.94;102048.50;7968651;28;20707;-66
2021/03/17 13:19:36;;;;;;;2.90;1.00;;;;;;;7.64;47.66;102056.97;7963027;28;20498;-67
2021/03/17 13:23:27;;;;;;;4.88;0.90;;;;;;;7.65;46.83;102056.94;7963843;28;20283;-67
2021/03/17 13:27:18;;;;;;;1.83;0.93;;;;;;;7.63;47.03;102048.28;7963662;28;20099;-67
2021/03/17 13:31:08;;;;;;;3.75;1.08;;;;;;;7.68;46.90;102051.59;7962774;28;20034;-65
2021/03/17 13:34:59;;;;;;;2.50;1.10;;;;;;;7.70;47.22;102047.19;7963741;28;20033;-64
2021/03/17 13:38:50;;;;;;;5.72;1.15;;;;;;;7.74;47.08;102055.75;7964033;28;20041;-71
2021/03/17 13:42:41;;;;;;;3.45;1.20;;;;;;;7.80;47.22;102056.38;7946270;28;20078;-67
2021/03/17 13:46:32;;;;;;;3.65;1.10;;;;;;;7.90;46.94;102059.53;7963536;28;20037;-68
2021/03/17 13:50:24;;;;;;;2.28;1.00;;;;;;;7.90;47.11;102052.53;7964531;28;20581;-66
2021/03/17 13:54:15;;;;;;;3.13;0.90;;;;;;;7.94;46.94;102053.28;7964488;28;20122;-67
2021/03/17 13:58:06;;;;;;;5.03;1.13;;;;;;;7.96;46.73;102059.34;7965037;28;20533;-65
2021/03/17 14:01:57;;;;;;;2.28;1.00;;;;;;;7.96;46.83;102051.47;7964232;28;20554;-65
2021/03/17 14:05:48;;;;;;;3.83;0.90;;;;;;;8.04;46.60;102057.28;7964657;28;20037;-68
2021/03/17 14:09:39;;;;;;;2.40;1.42;;;;;;;8.01;46.44;102054.75;7963884;28;20029;-67
2021/03/17 14:13:30;;;;;;;2.25;1.00;;;;;;;7.99;46.62;102045.28;7964474;28;21150;-66
2021/03/17 14:17:20;;;;;;;4.05;1.40;;;;;;;8.02;46.48;102045.16;7962286;28;20075;-68
2021/03/17 14:21:11;;;;;;;4.10;1.77;;;;;;;8.00;46.45;102047.84;7963227;28;20055;-65
2021/03/17 14:25:03;;;;;;;6.07;1.50;;;;;;;7.99;46.17;102046.13;7963251;28;20036;-66
2021/03/17 14:28:53;;;;;;;3.50;1.10;;;;;;;7.98;46.64;102044.41;7962143;28;20156;-67
2021/03/17 14:32:44;;;;;;;2.20;0.95;;;;;;;8.02;46.67;102053.84;7963375;28;20087;-67
2021/03/17 14:36:35;;;;;;;2.85;1.00;;;;;;;7.98;46.63;102049.66;7963759;28;20409;-65
2021/03/17 14:40:29;;;;;;;3.50;0.90;;;;;;;8.09;46.61;102057.09;7962292;28;20033;-66
2021/03/17 14:44:20;;;;;;;3.63;0.82;;;;;;;8.10;46.57;102064.94;7963202;28;21193;-67
2021/03/17 14:48:10;;;;;;;2.75;0.93;;;;;;;8.08;46.40;102061.50;7960636;28;20044;-65
2021/03/17 14:52:02;;;;;;;3.92;0.90;;;;;;;8.04;46.66;102052.06;7958415;28;20093;-67
2021/03/17 14:55:53;;;;;;;1.00;0.80;;;;;;;8.01;46.36;102054.75;7960930;28;20045;-64
2021/03/17 14:59:44;;;;;;;2.53;0.82;;;;;;;8.01;46.48;102046.91;7958003;28;20066;-67
2021/03/17 15:03:34;;;;;;;3.53;0.90;;;;;;;8.04;46.57;102049.44;7959865;28;20046;-66
2021/03/17 15:07:28;;;;;;;5.43;0.80;;;;;;;8.03;46.48;102052.09;7960904;28;20044;-67
2021/03/17 15:11:19;;;;;;;5.65;1.52;;;;;;;8.04;46.52;102053.81;7942958;28;20508;-67
2021/03/17 15:15:11;;;;;;;2.17;0.93;;;;;;;8.02;46.29;102055.63;7960920;28;20772;-67
2021/03/17 15:19:03;;;;;;;1.42;1.10;;;;;;;7.98;46.37;102054.03;7959961;28;20040;-66
2021/03/17 15:22:55;;;;;;;1.55;0.95;;;;;;;7.93;46.10;102057.66;7959982;28;20050;-65
2021/03/17 15:26:45;;;;;;;1.65;1.02;;;;;;;7.87;46.51;102042.19;7960339;28;21701;-67
2021/03/17 15:30:36;;;;;;;3.20;1.10;;;;;;;7.84;46.34;102057.13;7959889;28;20494;-67
2021/03/17 15:34:27;;;;;;;2.60;0.90;;;;;;;7.81;46.53;102060.72;7960903;28;21390;-65
2021/03/17 15:38:18;;;;;;;2.95;0.80;;;;;;;7.76;46.54;102048.69;7959318;28;20134;-66
2021/03/17 15:42:09;;;;;;;3.00;1.08;;;;;;;7.79;46.73;102046.84;7960938;28;20075;-67
2021/03/17 15:46:00;;;;;;;6.30;1.15;;;;;;;7.77;46.29;102045.19;7959583;28;20042;-67
2021/03/17 15:49:50;;;;;;;4.03;1.27;;;;;;;7.75;46.50;102054.88;7951260;28;20041;-67
2021/03/17 15:53:41;;;;;;;4.40;1.00;;;;;;;7.75;46.31;102065.31;7964020;28;20048;-65
2021/03/17 15:57:32;;;;;;;1.90;1.00;;;;;;;7.71;46.27;102064.56;7967321;28;20041;-66
2021/03/17 16:01:24;;;;;;;1.63;0.90;;;;;;;7.69;46.21;102066.38;7962667;28;20045;-67
2021/03/17 16:05:15;;;;;;;1.80;0.82;;;;;;;7.70;46.29;102073.34;7962913;28;20435;-68
2021/03/17 16:09:06;;;;;;;4.45;0.98;;;;;;;7.67;46.34;102068.19;7963641;28;20112;-66
2021/03/17 16:12:57;;;;;;;0.68;0.68;;;;;;;7.66;46.34;102065.66;7967063;28;20041;-67
2021/03/17 16:16:48;;;;;;;2.53;1.38;;;;;;;7.64;46.54;102073.53;7965080;28;20041;-65
2021/03/17 16:20:39;;;;;;;3.00;1.10;;;;;;;7.62;46.36;102070.13;7965688;28;20057;-66
2021/03/17 16:24:30;;;;;;;2.40;0.80;;;;;;;7.62;46.29;102087.59;7964103;28;20032;-67
2021/03/17 16:28:20;;;;;;;1.77;0.88;;;;;;;7.62;46.20;102082.34;7964142;28;20052;-67
2021/03/17 16:32:12;;;;;;;3.75;0.98;;;;;;;7.54;46.21;102090.47;7965719;28;20045;-64
2021/03/17 16:36:07;;;;;;;1.35;0.90;;;;;;;7.47;46.31;102092.41;7957987;28;20033;-66
2021/03/17 16:39:58;;;;;;;3.80;1.10;;;;;;;7.43;46.56;102092.56;7964957;28;20516;-66
2021/03/17 16:43:48;;;;;;;2.60;0.88;;;;;;;7.36;46.52;102096.31;7967504;28;20034;-64
2021/03/17 16:47:39;;;;;;;2.55;1.08;;;;;;;7.31;46.12;102099.06;7966212;28;20122;-64
2021/03/17 16:51:30;;;;;;;2.75;1.13;;;;;;;7.21;46.37;102095.06;7965915;28;20045;-66
2021/03/17 16:55:20;;;;;;;1.75;1.05;;;;;;;7.17;46.21;102103.91;7966222;28;20332;-67
2021/03/17 16:59:11;;;;;;;2.00;1.35;;;;;;;7.08;46.57;102100.72;7965969;28;20760;-67
2021/03/17 17:03:02;;;;;;;2.60;0.80;;;;;;;7.02;46.20;102113.06;7965735;28;20041;-67
2021/03/17 17:06:53;;;;;;;3.70;1.08;;;;;;;6.97;46.38;102116.72;7962945;28;20123;-66
2021/03/17 17:10:44;;;;;;;2.53;1.08;;;;;;;6.93;46.48;102120.34;7965174;28;20053;-65
2021/03/17 17:14:34;;;;;;;3.63;1.38;;;;;;;6.85;46.28;102122.31;7966108;28;20056;-64
2021/03/17 17:18:25;;;;;;;2.63;0.90;;;;;;;6.80;46.14;102126.88;7964262;28;20048;-69
2021/03/17 17:22:16;;;;;;;3.50;1.05;;;;;;;6.71;46.10;102127.09;7962302;28;20029;-68
2021/03/17 17:26:06;;;;;;;1.60;0.70;;;;;;;6.67;46.33;102142.00;7964098;28;20437;-67
2021/03/17 17:29:57;;;;;;;2.33;1.08;;;;;;;6.63;46.29;102144.75;7963713;28;20038;-67
2021/03/17 17:33:48;;;;;;;2.80;0.73;;;;;;;6.53;45.96;102147.63;7964659;28;20047;-67
2021/03/17 17:37:38;;;;;;;2.97;1.00;;;;;;;6.49;45.81;102139.94;7963401;28;20041;-67
2021/03/17 17:41:29;;;;;;;1.58;0.90;;;;;;;6.43;46.05;102148.78;7963377;28;20425;-68
2021/03/17 17:45:20;;;;;;;0.82;0.68;;;;;;;6.37;45.90;102163.78;7963806;28;20029;-68
2021/03/17 17:49:11;;;;;;;1.33;1.05;;;;;;;6.30;45.77;102165.72;7962316;28;20059;-67
2021/03/17 17:53:03;;;;;;;1.55;0.90;;;;;;;6.22;45.80;102154.63;7962343;28;20964;-67
2021/03/17 17:56:54;;;;;;;1.35;0.80;;;;;;;6.13;45.51;102149.66;7964185;28;20036;-67
2021/03/17 18:00:46;;;;;;;2.25;0.85;;;;;;;6.08;45.93;102157.59;7962569;28;20041;-67
2021/03/17 18:04:36;;;;;;;1.98;0.90;;;;;;;6.00;45.71;102145.66;7963695;28;20049;-68
2021/03/17 18:08:27;;;;;;;1.55;1.02;;;;;;;5.94;45.76;102162.31;7960408;28;20036;-66
2021/03/17 18:12:18;;;;;;;3.83;0.90;;;;;;;5.85;45.85;102162.56;7961744;28;20033;-67
2021/03/17 18:16:09;;;;;;;2.55;1.25;;;;;;;5.81;45.75;102167.91;7963638;28;20128;-67
2021/03/17 18:20:00;;;;;;;2.40;1.27;;;;;;;5.74;45.61;102161.97;7962214;28;20425;-68
2021/03/17 18:23:51;;;;;;;2.67;1.10;;;;;;;5.68;45.57;102137.84;7960750;28;20793;-67